createdAt,value
2022-10-29T00:02:20.658Z,101605.09
2022-10-29T00:04:47.734Z,101599.50
2022-10-29T00:07:14.917Z,101597.78
2022-10-29T00:09:42.078Z,101603.94
2022-10-29T00:12:09.496Z,101607.41
2022-10-29T00:14:36.621Z,101610.38
2022-10-29T00:17:03.890Z,101604.94
2022-10-29T00:19:30.875Z,101604.94
2022-10-29T00:21:57.778Z,101606.34
2022-10-29T00:24:24.717Z,101615.09
2022-10-29T00:26:51.640Z,101609.06
2022-10-29T00:29:18.581Z,101612.78
2022-10-29T00:31:45.636Z,101602.03
2022-10-29T00:34:12.702Z,101601.06
2022-10-29T00:36:39.816Z,101593.88
2022-10-29T00:39:06.772Z,101593.31
2022-10-29T00:41:34.049Z,101591.25
2022-10-29T00:44:20.611Z,101596.84
2022-10-29T00:46:53.188Z,101592.66
2022-10-29T00:49:20.810Z,101592.75
2022-10-29T00:51:48.548Z,101587.31
2022-10-29T00:54:17.079Z,101599.34
2022-10-29T00:56:54.463Z,101603.22
2022-10-29T00:59:21.587Z,101603.34
2022-10-29T01:01:49.584Z,101600.63
2022-10-29T01:04:18.187Z,101600.03
2022-10-29T01:06:46.949Z,101592.72
2022-10-29T01:09:14.435Z,101603.63
2022-10-29T01:11:50.081Z,101604.47
2022-10-29T01:14:45.168Z,101602.16
2022-10-29T01:17:41.157Z,101607.16
2022-10-29T01:20:32.885Z,101610.00
2022-10-29T01:23:58.532Z,101613.00
2022-10-29T01:26:47.285Z,101613.00
2022-10-29T01:29:36.000Z,101613.00
2022-10-29T01:32:15.037Z,101613.28
2022-10-29T01:35:15.718Z,101612.41
2022-10-29T01:38:09.450Z,101613.69
2022-10-29T01:40:59.613Z,101610.97
2022-10-29T01:43:43.668Z,101609.34
2022-10-29T01:46:19.260Z,101611.22
2022-10-29T01:48:53.973Z,101609.75
2022-10-29T01:51:24.238Z,101613.59
2022-10-29T01:53:52.021Z,101607.31
2022-10-29T01:56:18.988Z,101607.31
2022-10-29T01:58:50.985Z,101598.56
2022-10-29T02:01:33.911Z,101592.53
2022-10-29T02:04:42.827Z,101583.91
2022-10-29T02:07:34.410Z,101586.91
2022-10-29T02:10:15.478Z,101584.69
2022-10-29T02:12:54.477Z,101585.97
2022-10-29T02:15:39.353Z,101588.22
2022-10-29T02:18:08.484Z,101588.75
2022-10-29T02:20:35.941Z,101588.28
2022-10-29T02:23:03.021Z,101584.22
2022-10-29T02:25:30.006Z,101591.03
2022-10-29T02:27:59.429Z,101589.81
2022-10-29T02:30:26.520Z,101579.19
2022-10-29T02:32:53.709Z,101583.19
2022-10-29T02:35:20.793Z,101578.00
2022-10-29T02:37:47.854Z,101563.72
2022-10-29T02:40:14.898Z,101570.25
2022-10-29T02:42:41.977Z,101571.50
2022-10-29T02:45:09.415Z,101557.44
2022-10-29T02:47:36.345Z,101566.09
2022-10-29T02:50:03.402Z,101562.78
2022-10-29T02:52:30.393Z,101570.19
2022-10-29T02:54:57.378Z,101569.50
2022-10-29T02:57:24.424Z,101555.03
2022-10-29T02:59:51.454Z,101559.00
2022-10-29T03:02:18.628Z,101553.84
2022-10-29T03:04:45.734Z,101558.50
2022-10-29T03:07:12.904Z,101557.66
2022-10-29T03:09:39.849Z,101565.94
2022-10-29T03:12:07.387Z,101552.16
2022-10-29T03:14:34.310Z,101552.66
2022-10-29T03:17:01.322Z,101554.75
2022-10-29T03:19:28.231Z,101550.44
2022-10-29T03:21:55.270Z,101549.69
2022-10-29T03:24:22.210Z,101558.84
2022-10-29T03:26:49.201Z,101556.50
2022-10-29T03:29:16.180Z,101551.44
2022-10-29T03:31:43.142Z,101549.00
2022-10-29T03:34:10.057Z,101542.84
2022-10-29T03:36:37.054Z,101536.66
2022-10-29T03:39:03.958Z,101546.19
2022-10-29T03:41:30.901Z,101539.16
2022-10-29T03:43:57.913Z,101539.53
2022-10-29T03:46:24.870Z,101546.06
2022-10-29T03:48:51.833Z,101550.84
2022-10-29T03:51:19.199Z,101545.78
2022-10-29T03:53:46.137Z,101553.31
2022-10-29T03:56:13.175Z,101550.84
2022-10-29T03:58:40.105Z,101553.69
2022-10-29T04:01:09.540Z,101558.50
2022-10-29T04:03:38.761Z,101552.47
2022-10-29T04:06:14.808Z,101554.69
2022-10-29T04:08:42.813Z,101552.22
2022-10-29T04:11:12.494Z,101567.72
2022-10-29T04:13:40.021Z,101566.00
2022-10-29T04:16:07.356Z,101569.81
2022-10-29T04:18:34.509Z,101564.66
2022-10-29T04:29:24.304Z,101555.50
2022-10-29T04:31:51.415Z,101569.41
2022-10-29T04:34:18.511Z,101562.63
2022-10-29T04:36:45.388Z,101570.13
2022-10-29T04:39:12.452Z,101564.22
2022-10-29T04:41:39.317Z,101563.81
2022-10-29T04:44:06.286Z,101559.66
2022-10-29T04:46:33.270Z,101560.84
2022-10-29T04:49:00.343Z,101560.22
2022-10-29T04:51:27.400Z,101569.44
2022-10-29T04:53:54.357Z,101560.44
2022-10-29T04:56:21.374Z,101569.59
2022-10-29T04:58:52.579Z,101561.81
2022-10-29T05:01:20.264Z,101559.69
2022-10-29T05:03:47.329Z,101554.72
2022-10-29T05:06:14.390Z,101545.97
2022-10-29T05:08:41.351Z,101546.31
2022-10-29T05:11:08.370Z,101552.56
2022-10-29T05:13:35.496Z,101553.47
2022-10-29T05:16:02.878Z,101556.25
2022-10-29T05:18:29.768Z,101560.94
2022-10-29T05:20:57.446Z,101566.44
2022-10-29T05:23:24.744Z,101572.13
2022-10-29T05:25:52.356Z,101572.22
2022-10-29T05:28:22.297Z,101581.09
2022-10-29T05:30:52.309Z,101586.38
2022-10-29T05:33:24.631Z,101578.16
2022-10-29T05:35:52.007Z,101582.59
2022-10-29T05:38:19.387Z,101572.63
2022-10-29T05:40:46.496Z,101582.25
2022-10-29T05:43:15.501Z,101569.69
2022-10-29T05:45:43.160Z,101572.41
2022-10-29T05:50:39.796Z,101564.03
2022-10-29T05:53:10.795Z,101573.78
2022-10-29T05:55:38.793Z,101566.50
2022-10-29T05:58:10.480Z,101573.41
2022-10-29T06:00:41.745Z,101577.00
2022-10-29T06:03:17.990Z,101570.69
2022-10-29T06:05:46.818Z,101569.84
2022-10-29T06:08:13.759Z,101564.44
2022-10-29T06:10:40.981Z,101566.16
2022-10-29T06:13:21.670Z,101560.66
2022-10-29T06:15:50.258Z,101560.75
2022-10-29T06:18:17.162Z,101557.28
2022-10-29T06:20:44.136Z,101560.75
2022-10-29T06:23:12.019Z,101557.94
2022-10-29T06:25:39.041Z,101559.88
2022-10-29T06:28:09.259Z,101557.72
2022-10-29T06:30:37.247Z,101556.84
2022-10-29T06:33:05.431Z,101558.47
2022-10-29T06:35:32.719Z,101565.72
2022-10-29T06:38:00.075Z,101570.28
2022-10-29T06:40:27.658Z,101564.34
2022-10-29T06:43:03.158Z,101570.41
2022-10-29T06:45:31.065Z,101563.88
2022-10-29T06:47:58.536Z,101574.06
2022-10-29T06:50:26.825Z,101569.75
2022-10-29T06:53:05.558Z,101573.94
2022-10-29T06:55:34.154Z,101574.06
2022-10-29T06:58:07.669Z,101561.72
2022-10-29T07:00:35.642Z,101569.22
2022-10-29T07:03:04.833Z,101561.00
2022-10-29T07:05:32.483Z,101556.56
2022-10-29T07:08:01.625Z,101559.28
2022-10-29T07:10:31.611Z,101559.28
2022-10-29T07:12:59.085Z,101558.31
2022-10-29T07:15:29.481Z,101548.47
2022-10-29T07:18:07.286Z,101557.19
2022-10-29T07:20:39.009Z,101543.41
2022-10-29T07:23:06.414Z,101554.78
2022-10-29T07:25:35.740Z,101554.31
2022-10-29T07:28:05.593Z,101562.50
2022-10-29T07:30:33.436Z,101569.94
2022-10-29T07:33:00.571Z,101566.75
2022-10-29T07:35:27.613Z,101578.94
2022-10-29T07:38:05.148Z,101565.06
2022-10-29T07:40:39.456Z,101552.75
2022-10-29T07:43:06.920Z,101554.84
2022-10-29T07:45:34.253Z,101559.81
2022-10-29T07:48:09.984Z,101556.38
2022-10-29T07:50:38.757Z,101558.59
2022-10-29T07:53:07.536Z,101566.00
2022-10-29T07:55:34.955Z,101562.66
2022-10-29T07:58:05.855Z,101569.22
2022-10-29T08:00:36.397Z,101571.19
2022-10-29T08:03:04.497Z,101569.44
2022-10-29T08:05:31.935Z,101562.66
2022-10-29T08:08:00.179Z,101565.78
2022-10-29T08:10:27.756Z,101560.00
2022-10-29T08:12:58.463Z,101559.50
2022-10-29T08:15:27.487Z,101568.75
2022-10-29T08:17:54.703Z,101560.84
2022-10-29T08:20:25.848Z,101563.25
2022-10-29T08:22:52.879Z,101548.53
2022-10-29T08:25:20.674Z,101550.81
2022-10-29T08:28:03.815Z,101554.69
2022-10-29T08:30:32.101Z,101549.84
2022-10-29T08:32:59.703Z,101559.84
2022-10-29T08:35:28.046Z,101559.56
2022-10-29T08:37:55.185Z,101541.66
2022-10-29T08:40:33.770Z,101548.06
2022-10-29T08:43:22.808Z,101545.59
2022-10-29T08:45:53.465Z,101548.25
2022-10-29T08:48:29.104Z,101545.09
2022-10-29T08:51:21.774Z,101544.84
2022-10-29T08:56:55.252Z,101553.31
2022-10-29T08:59:25.055Z,101546.59
2022-10-29T09:01:53.662Z,101549.31
2022-10-29T09:04:38.316Z,101558.50
2022-10-29T09:07:39.516Z,101555.03
2022-10-29T09:10:18.237Z,101559.22
2022-10-29T09:13:43.293Z,101570.69
2022-10-29T09:16:48.053Z,101560.63
2022-10-29T09:20:02.475Z,101571.09
2022-10-29T09:22:58.930Z,101564.50
2022-10-29T09:25:45.171Z,101562.47
2022-10-29T09:28:50.850Z,101550.28
2022-10-29T09:31:32.364Z,101552.56
2022-10-29T09:34:10.771Z,101541.78
2022-10-29T09:36:39.586Z,101531.25
2022-10-29T09:39:34.383Z,101524.13
2022-10-29T09:42:12.730Z,101517.97
2022-10-29T09:44:57.731Z,101506.47
2022-10-29T09:47:30.747Z,101508.91
2022-10-29T09:50:31.280Z,101510.47
2022-10-29T09:52:58.723Z,101501.75
2022-10-29T09:55:46.198Z,101504.22
2022-10-29T09:58:22.328Z,101502.91
2022-10-29T10:00:51.056Z,101509.75
2022-10-29T10:03:45.516Z,101507.78
2022-10-29T10:06:15.610Z,101521.22
2022-10-29T10:09:08.835Z,101526.13
2022-10-29T10:11:42.525Z,101523.78
2022-10-29T10:14:22.137Z,101523.34
2022-10-29T10:17:00.634Z,101517.41
2022-10-29T10:19:32.791Z,101521.00
2022-10-29T10:22:05.086Z,101516.69
2022-10-29T10:24:37.656Z,101525.28
2022-10-29T10:27:20.293Z,101515.56
2022-10-29T10:30:13.914Z,101509.59
2022-10-29T10:32:40.931Z,101505.28
2022-10-29T10:35:30.958Z,101489.75
2022-10-29T10:37:59.840Z,101500.03
2022-10-29T10:40:28.037Z,101495.94
2022-10-29T10:42:55.823Z,101483.94
2022-10-29T10:45:36.060Z,101477.31
2022-10-29T10:48:08.762Z,101468.88
2022-10-29T10:50:37.429Z,101470.25
2022-10-29T10:53:19.467Z,101468.59
2022-10-29T10:55:53.512Z,101467.41
2022-10-29T10:58:35.657Z,101468.00
2022-10-29T11:01:13.702Z,101459.47
2022-10-29T11:03:47.661Z,101457.41
2022-10-29T11:06:26.051Z,101458.28
2022-10-29T11:09:34.921Z,101466.00
2022-10-29T11:12:27.810Z,101462.59
2022-10-29T11:15:04.165Z,101443.56
2022-10-29T11:17:55.427Z,101437.91
2022-10-29T11:20:35.842Z,101434.44
2022-10-29T11:23:47.079Z,101433.72
2022-10-29T11:26:38.750Z,101429.88
2022-10-29T11:29:34.157Z,101430.94
2022-10-29T11:32:17.866Z,101420.44
2022-10-29T11:35:10.236Z,101439.09
2022-10-29T11:37:59.145Z,101421.81
2022-10-29T11:40:37.656Z,101416.19
2022-10-29T11:43:13.829Z,101418.84
2022-10-29T11:46:12.209Z,101409.78
2022-10-29T11:49:06.940Z,101400.31
2022-10-29T11:51:52.249Z,101404.47
2022-10-29T11:54:53.853Z,101387.69
2022-10-29T11:57:38.599Z,101363.03
2022-10-29T12:00:16.794Z,101370.88
2022-10-29T12:03:34.324Z,101377.34
2022-10-29T12:07:02.467Z,101386.81
2022-10-29T12:09:46.996Z,101380.28
2022-10-29T12:12:51.860Z,101377.69
2022-10-29T12:15:34.935Z,101372.44
2022-10-29T12:18:31.261Z,101362.06
2022-10-29T12:22:04.426Z,101358.94
2022-10-29T12:24:57.079Z,101354.88
2022-10-29T12:27:38.964Z,101345.50
2022-10-29T12:30:09.405Z,101345.56
2022-10-29T12:32:49.262Z,101345.00
2022-10-29T12:35:25.665Z,101338.50
2022-10-29T12:38:29.394Z,101334.22
2022-10-29T12:41:05.922Z,101336.41
2022-10-29T12:43:36.541Z,101337.59
2022-10-29T12:46:36.098Z,101332.59
2022-10-29T12:49:36.949Z,101327.94
2022-10-29T12:52:37.430Z,101337.41
2022-10-29T12:55:09.952Z,101322.25
2022-10-29T12:57:37.204Z,101337.72
2022-10-29T13:00:23.090Z,101347.19
2022-10-29T13:02:55.479Z,101347.94
2022-10-29T13:05:43.451Z,101346.78
2022-10-29T13:08:28.183Z,101335.84
2022-10-29T13:10:57.010Z,101329.25
2022-10-29T13:13:39.553Z,101323.16
2022-10-29T13:16:17.995Z,101326.13
2022-10-29T13:19:23.379Z,101320.50
2022-10-29T13:22:02.226Z,101329.41
2022-10-29T13:24:30.746Z,101326.97
2022-10-29T13:27:06.189Z,101324.53
2022-10-29T13:29:47.526Z,101318.50
2022-10-29T13:32:37.566Z,101309.91
2022-10-29T13:35:27.375Z,101309.03
2022-10-29T13:37:55.849Z,101302.94
2022-10-29T13:40:22.651Z,101301.63
2022-10-29T13:43:15.603Z,101296.00
2022-10-29T13:45:50.790Z,101305.31
2022-10-29T13:48:29.392Z,101301.06
2022-10-29T13:50:58.746Z,101302.09
2022-10-29T13:53:59.145Z,101305.28
2022-10-29T13:56:46.089Z,101298.88
2022-10-29T13:59:42.736Z,101300.44
2022-10-29T14:02:39.024Z,101288.69
2022-10-29T14:05:29.664Z,101294.47
2022-10-29T14:08:12.407Z,101281.50
2022-10-29T14:10:42.331Z,101277.53
2022-10-29T14:13:31.949Z,101275.28
2022-10-29T14:16:09.906Z,101275.28
2022-10-29T14:18:43.843Z,101278.78
2022-10-29T14:21:31.356Z,101278.63
2022-10-29T14:24:05.918Z,101266.16
2022-10-29T14:26:40.374Z,101266.06
2022-10-29T14:29:23.880Z,101269.75
2022-10-29T14:32:18.620Z,101273.19
2022-10-29T14:34:50.556Z,101263.41
2022-10-29T14:37:32.698Z,101267.31
2022-10-29T14:40:14.366Z,101273.84
2022-10-29T14:42:46.952Z,101280.41
2022-10-29T14:45:30.960Z,101286.09
2022-10-29T14:48:03.311Z,101282.19
2022-10-29T14:50:31.277Z,101279.16
2022-10-29T14:53:03.065Z,101269.09
2022-10-29T14:55:46.027Z,101282.47
2022-10-29T14:58:29.908Z,101288.78
2022-10-29T15:01:07.648Z,101288.06
2022-10-29T15:03:35.688Z,101278.94
2022-10-29T15:06:30.038Z,101278.53
2022-10-29T15:09:00.428Z,101276.38
2022-10-29T15:12:00.916Z,101281.63
2022-10-29T15:14:30.615Z,101280.16
2022-10-29T15:16:59.011Z,101283.09
2022-10-29T15:19:26.643Z,101273.41
2022-10-29T15:21:53.699Z,101285.47
2022-10-29T15:24:23.109Z,101277.75
2022-10-29T15:26:58.614Z,101272.66
2022-10-29T15:29:33.647Z,101272.03
2022-10-29T15:32:01.821Z,101262.31
2022-10-29T15:34:33.549Z,101261.84
2022-10-29T15:37:23.378Z,101268.84
2022-10-29T15:39:59.099Z,101260.66
2022-10-29T15:42:35.070Z,101268.22
2022-10-29T15:45:08.093Z,101267.06
2022-10-29T15:47:44.620Z,101264.69
2022-10-29T15:50:15.954Z,101259.41
2022-10-29T15:52:52.991Z,101254.97
2022-10-29T15:55:26.759Z,101259.06
2022-10-29T15:57:59.911Z,101252.88
2022-10-29T16:00:27.283Z,101250.13
2022-10-29T16:02:59.005Z,101250.13
2022-10-29T16:05:26.507Z,101242.81
2022-10-29T16:07:53.507Z,101240.56
2022-10-29T16:10:21.652Z,101237.44
2022-10-29T16:12:50.153Z,101241.38
2022-10-29T16:15:19.738Z,101243.09
2022-10-29T16:17:47.547Z,101243.56
2022-10-29T16:20:18.147Z,101239.09
2022-10-29T16:22:46.842Z,101240.13
2022-10-29T16:25:26.818Z,101241.31
2022-10-29T16:27:55.540Z,101242.34
2022-10-29T16:30:24.132Z,101245.25
2022-10-29T16:32:52.499Z,101244.72
2022-10-29T16:35:25.542Z,101244.22
2022-10-29T16:37:54.623Z,101238.91
2022-10-29T16:40:26.735Z,101239.94
2022-10-29T16:42:57.536Z,101242.81
2022-10-29T16:45:29.939Z,101243.50
2022-10-29T16:47:58.260Z,101239.06
2022-10-29T16:50:29.006Z,101238.34
2022-10-29T16:53:04.187Z,101239.91
2022-10-29T16:55:31.223Z,101239.19
2022-10-29T16:57:58.634Z,101235.03
2022-10-29T17:00:26.158Z,101234.84
2022-10-29T17:02:53.358Z,101241.31
2022-10-29T17:05:20.337Z,101240.97
2022-10-29T17:07:47.268Z,101242.06
2022-10-29T17:10:14.213Z,101231.47
2022-10-29T17:12:41.186Z,101229.09
2022-10-29T17:15:08.818Z,101227.38
2022-10-29T17:17:35.835Z,101233.84
2022-10-29T17:20:02.890Z,101235.88
2022-10-29T17:22:29.805Z,101237.31
2022-10-29T17:24:56.770Z,101237.59
2022-10-29T17:27:23.758Z,101241.28
2022-10-29T17:29:50.736Z,101233.72
2022-10-29T17:32:18.107Z,101226.56
2022-10-29T17:34:45.134Z,101228.63
2022-10-29T17:37:12.368Z,101241.41
2022-10-29T17:39:39.563Z,101243.44
2022-10-29T17:42:06.517Z,101248.03
2022-10-29T17:44:35.434Z,101250.94
2022-10-29T17:47:02.600Z,101245.97
2022-10-29T17:49:29.616Z,101246.44
2022-10-29T17:51:56.562Z,101238.88
2022-10-29T17:54:23.584Z,101236.63
2022-10-29T17:56:52.129Z,101240.88
2022-10-29T17:59:19.284Z,101238.44
2022-10-29T18:01:46.384Z,101241.47
2022-10-29T18:04:13.466Z,101244.94
2022-10-29T18:06:40.424Z,101250.56
2022-10-29T18:09:07.384Z,101244.56
2022-10-29T18:11:34.519Z,101246.88
2022-10-29T18:14:01.554Z,101255.88
2022-10-29T18:16:29.833Z,101250.72
2022-10-29T18:19:03.016Z,101256.19
2022-10-29T18:21:31.118Z,101250.72
2022-10-29T18:23:58.264Z,101247.16
2022-10-29T18:26:28.896Z,101247.16
2022-10-29T18:28:57.218Z,101246.22
2022-10-29T18:31:28.469Z,101246.84
2022-10-29T18:33:56.896Z,101246.75
2022-10-29T18:36:23.850Z,101239.78
2022-10-29T18:38:57.071Z,101245.66
2022-10-29T18:41:25.206Z,101239.72
2022-10-29T18:43:52.646Z,101237.34
2022-10-29T18:46:20.117Z,101238.13
2022-10-29T18:48:48.707Z,101244.34
2022-10-29T18:51:18.540Z,101242.91
2022-10-29T18:53:46.294Z,101236.34
2022-10-29T18:56:16.163Z,101243.25
2022-10-29T18:58:43.986Z,101233.34
2022-10-29T19:01:20.252Z,101249.97
2022-10-29T19:03:53.196Z,101244.97
2022-10-29T19:06:21.518Z,101230.78
2022-10-29T19:08:49.062Z,101241.84
2022-10-29T19:11:22.338Z,101238.28
2022-10-29T19:13:55.012Z,101235.38
2022-10-29T19:16:22.838Z,101231.09
2022-10-29T19:18:58.845Z,101230.38
2022-10-29T19:21:27.181Z,101229.66
2022-10-29T19:23:55.939Z,101226.00
2022-10-29T19:26:24.676Z,101210.84
2022-10-29T19:28:51.779Z,101226.47
2022-10-29T19:31:22.760Z,101222.50
2022-10-29T19:33:52.485Z,101221.63
2022-10-29T19:36:20.664Z,101220.91
2022-10-29T19:38:48.254Z,101227.41
2022-10-29T19:41:16.382Z,101231.25
2022-10-29T19:43:44.294Z,101233.13
2022-10-29T19:46:17.820Z,101221.34
2022-10-29T19:48:50.495Z,101226.97
2022-10-29T19:51:18.381Z,101234.84
2022-10-29T19:53:45.905Z,101237.25
2022-10-29T19:56:16.555Z,101235.69
2022-10-29T19:58:43.887Z,101234.91
2022-10-29T20:01:15.991Z,101227.63
2022-10-29T20:03:43.552Z,101223.47
2022-10-29T20:06:11.195Z,101229.06
2022-10-29T20:08:38.668Z,101226.19
2022-10-29T20:11:06.147Z,101222.28
2022-10-29T20:13:33.502Z,101214.84
2022-10-29T20:16:07.340Z,101221.84
2022-10-29T20:18:36.031Z,101226.13
2022-10-29T20:21:03.039Z,101223.97
2022-10-29T20:23:30.561Z,101222.81
2022-10-29T20:25:57.560Z,101219.31
2022-10-29T20:28:25.124Z,101210.69
2022-10-29T20:31:31.204Z,101206.41
2022-10-29T20:34:00.908Z,101202.97
2022-10-29T20:36:31.637Z,101190.91
2022-10-29T20:38:58.858Z,101183.63
2022-10-29T20:41:26.262Z,101180.34
2022-10-29T20:43:56.092Z,101178.91
2022-10-29T20:46:24.455Z,101176.34
2022-10-29T20:48:51.703Z,101174.63
2022-10-29T20:51:19.028Z,101177.53
2022-10-29T20:53:46.160Z,101170.19
2022-10-29T20:56:16.154Z,101170.63
2022-10-29T20:58:43.967Z,101174.31
2022-10-29T21:01:15.268Z,101171.72
2022-10-29T21:03:42.874Z,101176.75
2022-10-29T21:06:15.519Z,101172.06
2022-10-29T21:08:43.568Z,101170.09
2022-10-29T21:11:12.616Z,101164.25
2022-10-29T21:13:39.656Z,101165.88
2022-10-29T21:16:26.633Z,101160.44
2022-10-29T21:18:58.083Z,101159.34
2022-10-29T21:21:25.866Z,101160.78
2022-10-29T21:23:53.052Z,101154.25
2022-10-29T21:26:22.777Z,101156.56
2022-10-29T21:28:51.206Z,101153.13
2022-10-29T21:31:19.682Z,101156.13
2022-10-29T21:33:49.788Z,101158.16
2022-10-29T21:36:17.141Z,101144.56
2022-10-29T21:38:44.060Z,101152.56
2022-10-29T21:41:11.092Z,101147.84
2022-10-29T21:43:39.359Z,101149.41
2022-10-29T21:46:06.940Z,101150.41
2022-10-29T21:48:34.336Z,101148.69
2022-10-29T21:51:11.034Z,101151.72
2022-10-29T21:53:38.507Z,101161.72
2022-10-29T21:56:09.838Z,101161.56
2022-10-29T21:58:36.939Z,101155.56
2022-10-29T22:01:04.130Z,101156.72
2022-10-29T22:03:33.312Z,101154.91
2022-10-29T22:06:17.389Z,101164.53
2022-10-29T22:08:45.694Z,101165.94
2022-10-29T22:11:13.783Z,101163.34
2022-10-29T22:13:41.021Z,101168.50
2022-10-29T22:16:09.001Z,101174.66
2022-10-29T22:18:36.488Z,101165.94
2022-10-29T22:21:07.011Z,101175.09
2022-10-29T22:23:34.258Z,101172.22
2022-10-29T22:26:01.541Z,101172.22
2022-10-29T22:28:28.501Z,101174.81
2022-10-29T22:31:03.750Z,101184.53
2022-10-29T22:33:32.711Z,101188.09
2022-10-29T22:36:20.823Z,101182.97
2022-10-29T22:38:56.283Z,101182.41
2022-10-29T22:41:25.735Z,101187.00
2022-10-29T22:43:53.232Z,101193.31
2022-10-29T22:46:21.939Z,101186.88
2022-10-29T22:48:49.069Z,101181.41
2022-10-29T22:51:18.738Z,101188.00
2022-10-29T22:53:46.223Z,101180.94
2022-10-29T22:56:23.529Z,101178.38
2022-10-29T22:58:52.091Z,101173.22
2022-10-29T23:01:22.751Z,101177.97
2022-10-29T23:03:50.410Z,101182.81
2022-10-29T23:06:21.214Z,101172.25
2022-10-29T23:08:55.048Z,101178.69
2022-10-29T23:11:25.684Z,101181.56
2022-10-29T23:14:02.854Z,101174.69
2022-10-29T23:16:32.776Z,101181.00
2022-10-29T23:19:05.352Z,101178.13
2022-10-29T23:21:32.872Z,101191.00
2022-10-29T23:24:00.511Z,101183.00
2022-10-29T23:26:28.967Z,101190.28
2022-10-29T23:28:56.263Z,101180.56
2022-10-29T23:31:26.255Z,101184.59
2022-10-29T23:33:56.554Z,101180.44
2022-10-29T23:36:25.654Z,101175.31
2022-10-29T23:38:58.346Z,101178.16
2022-10-29T23:41:27.300Z,101177.31
2022-10-29T23:43:54.301Z,101180.88
2022-10-29T23:46:21.776Z,101182.44
2022-10-29T23:48:48.942Z,101187.03
2022-10-29T23:51:15.875Z,101195.34
2022-10-29T23:53:42.848Z,101199.91
2022-10-29T23:56:10.212Z,101189.19
2022-10-29T23:58:37.104Z,101193.03
